createdAt,value
2018-01-23T00:00:59.711Z,7.25
2018-01-23T00:01:59.720Z,7.30
2018-01-23T00:02:59.734Z,7.32
2018-01-23T00:03:59.746Z,7.34
2018-01-23T00:04:59.758Z,7.30
2018-01-23T00:05:59.782Z,7.25
2018-01-23T00:06:59.786Z,7.27
2018-01-23T00:07:59.851Z,7.28
2018-01-23T00:08:59.813Z,7.28
2018-01-23T00:09:59.826Z,7.28
2018-01-23T00:10:59.986Z,7.30
2018-01-23T00:11:59.852Z,7.28
2018-01-23T00:12:59.861Z,7.32
2018-01-23T00:13:59.911Z,7.30
2018-01-23T00:14:59.891Z,7.27
2018-01-23T00:15:59.898Z,7.31
2018-01-23T00:16:59.916Z,7.28
2018-01-23T00:17:59.925Z,7.30
2018-01-23T00:18:59.938Z,7.28
2018-01-23T00:19:59.951Z,7.30
2018-01-23T00:20:59.965Z,7.24
2018-01-23T00:21:59.975Z,7.32
2018-01-23T00:22:59.993Z,7.27
2018-01-23T00:24:00.001Z,7.27
2018-01-23T00:25:00.017Z,7.25
2018-01-23T00:26:00.029Z,7.28
2018-01-23T00:27:00.044Z,7.31
2018-01-23T00:28:00.067Z,7.30
2018-01-23T00:29:00.135Z,7.30
2018-01-23T00:30:00.081Z,7.27
2018-01-23T00:31:00.090Z,7.34
2018-01-23T00:32:00.104Z,7.24
2018-01-23T00:33:00.113Z,7.27
2018-01-23T00:34:00.127Z,7.31
2018-01-23T00:35:00.295Z,7.30
2018-01-23T00:36:00.153Z,7.31
2018-01-23T00:37:00.168Z,7.31
2018-01-23T00:38:00.183Z,7.31
2018-01-23T00:39:00.192Z,7.28
2018-01-23T00:40:00.205Z,7.27
2018-01-23T00:41:00.369Z,7.32
2018-01-23T00:42:00.241Z,7.35
2018-01-23T00:43:00.242Z,7.31
2018-01-23T00:44:00.257Z,7.30
2018-01-23T00:45:00.268Z,7.32
2018-01-23T00:46:00.280Z,7.28
2018-01-23T00:47:00.297Z,7.30
2018-01-23T00:48:00.341Z,7.30
2018-01-23T00:49:00.439Z,7.31
2018-01-23T00:50:00.333Z,7.31
2018-01-23T00:51:00.345Z,7.25
2018-01-23T00:52:00.360Z,7.28
2018-01-23T00:53:00.370Z,7.21
2018-01-23T00:54:00.392Z,7.25
2018-01-23T00:55:00.396Z,7.32
2018-01-23T00:56:00.408Z,7.27
2018-01-23T00:57:00.420Z,7.17
2018-01-23T00:58:00.476Z,7.23
2018-01-23T00:59:00.456Z,7.23
2018-01-23T01:00:00.462Z,7.21
2018-01-23T01:01:00.474Z,7.20
2018-01-23T01:02:00.484Z,7.21
2018-01-23T01:03:00.497Z,7.17
2018-01-23T01:04:00.512Z,7.23
2018-01-23T01:05:00.530Z,7.24
2018-01-23T01:06:00.537Z,7.23
2018-01-23T01:07:00.551Z,7.23
2018-01-23T01:08:00.562Z,7.25
2018-01-23T01:09:00.586Z,7.24
2018-01-23T01:10:00.591Z,7.30
2018-01-23T01:11:00.600Z,7.21
2018-01-23T01:12:00.630Z,7.17
2018-01-23T01:13:00.627Z,7.17
2018-01-23T01:14:00.640Z,7.15
2018-01-23T01:15:00.807Z,7.27
2018-01-23T01:16:00.693Z,7.25
2018-01-23T01:17:00.677Z,7.21
2018-01-23T01:18:00.690Z,7.25
2018-01-23T01:19:00.752Z,7.27
2018-01-23T01:20:00.733Z,7.20
2018-01-23T01:21:00.737Z,7.25
2018-01-23T01:22:00.741Z,7.17
2018-01-23T01:23:00.753Z,7.23
2018-01-23T01:24:00.768Z,7.20
2018-01-23T01:25:00.785Z,7.23
2018-01-23T01:26:00.943Z,7.23
2018-01-23T01:27:00.807Z,7.24
2018-01-23T01:28:00.818Z,7.20
2018-01-23T01:29:00.830Z,7.20
2018-01-23T01:30:00.844Z,7.17
2018-01-23T01:31:00.861Z,7.17
2018-01-23T01:32:01.019Z,7.25
2018-01-23T01:33:00.883Z,7.25
2018-01-23T01:34:00.902Z,7.20
2018-01-23T01:35:00.907Z,7.21
2018-01-23T01:36:00.923Z,7.25
2018-01-23T01:37:00.933Z,7.24
2018-01-23T01:38:00.947Z,7.30
2018-01-23T01:39:00.961Z,7.21
2018-01-23T01:40:00.972Z,7.24
2018-01-23T01:41:00.983Z,7.20
2018-01-23T01:42:00.998Z,7.16
2018-01-23T01:43:01.013Z,7.21
2018-01-23T01:44:01.186Z,7.20
2018-01-23T01:45:01.036Z,7.21
2018-01-23T01:46:01.052Z,7.24
2018-01-23T01:47:01.062Z,7.25
2018-01-23T01:48:01.075Z,7.10
2018-01-23T01:49:01.088Z,7.07
2018-01-23T01:50:01.252Z,7.10
2018-01-23T01:51:01.135Z,7.12
2018-01-23T01:52:01.278Z,7.05
2018-01-23T01:53:01.138Z,7.07
2018-01-23T01:54:01.151Z,7.02
2018-01-23T01:55:01.167Z,7.03
2018-01-23T01:56:01.178Z,7.02
2018-01-23T01:57:01.191Z,6.94
2018-01-23T01:58:01.526Z,6.91
2018-01-23T01:59:01.568Z,6.91
2018-01-23T02:00:01.230Z,6.89
2018-01-23T02:01:01.242Z,6.89
2018-01-23T02:02:01.255Z,6.92
2018-01-23T02:03:01.418Z,6.92
2018-01-23T02:04:01.284Z,6.89
2018-01-23T02:05:01.303Z,6.98
2018-01-23T02:06:01.312Z,6.88
2018-01-23T02:07:01.330Z,6.89
2018-01-23T02:08:01.336Z,6.94
2018-01-23T02:09:01.347Z,6.91
2018-01-23T02:10:01.359Z,6.85
2018-01-23T02:11:01.376Z,6.94
2018-01-23T02:12:01.535Z,6.91
2018-01-23T02:13:01.412Z,6.88
2018-01-23T02:14:01.413Z,6.91
2018-01-23T02:15:01.438Z,6.91
2018-01-23T02:16:01.437Z,6.98
2018-01-23T02:17:01.450Z,6.99
2018-01-23T02:18:01.522Z,6.99
2018-01-23T02:19:01.477Z,7.02
2018-01-23T02:20:01.488Z,6.95
2018-01-23T02:21:01.556Z,6.92
2018-01-23T02:22:01.525Z,7.02
2018-01-23T02:23:01.529Z,6.99
2018-01-23T02:24:01.541Z,6.99
2018-01-23T02:25:01.554Z,7.02
2018-01-23T02:26:01.566Z,6.98
2018-01-23T02:27:01.583Z,6.92
2018-01-23T02:28:01.595Z,6.99
2018-01-23T02:29:01.607Z,7.03
2018-01-23T02:30:01.619Z,6.94
2018-01-23T02:31:01.633Z,6.92
2018-01-23T02:32:01.647Z,6.88
2018-01-23T02:33:01.668Z,7.05
2018-01-23T02:34:01.672Z,6.92
2018-01-23T02:35:01.685Z,6.95
2018-01-23T02:36:01.700Z,6.97
2018-01-23T02:38:01.727Z,6.88
2018-01-23T02:39:01.738Z,6.92
2018-01-23T02:40:01.751Z,6.97
2018-01-23T02:41:01.917Z,6.99
2018-01-23T02:42:01.777Z,6.92
2018-01-23T02:43:01.793Z,7.03
2018-01-23T02:44:01.803Z,6.97
2018-01-23T02:45:01.816Z,6.98
2018-01-23T02:46:01.830Z,6.91
2018-01-23T02:47:01.845Z,7.02
2018-01-23T02:48:01.855Z,7.07
2018-01-23T02:49:01.868Z,7.03
2018-01-23T02:50:01.880Z,6.98
2018-01-23T02:51:01.894Z,7.06
2018-01-23T02:52:01.908Z,7.03
2018-01-23T02:53:01.926Z,6.94
2018-01-23T02:54:01.935Z,6.95
2018-01-23T02:55:01.949Z,6.99
2018-01-23T02:56:01.966Z,7.02
2018-01-23T02:57:01.973Z,7.03
2018-01-23T02:58:01.990Z,6.95
2018-01-23T02:59:01.999Z,6.99
2018-01-23T03:00:02.018Z,6.92
2018-01-23T03:01:02.025Z,6.97
2018-01-23T03:02:02.038Z,7.02
2018-01-23T03:03:02.051Z,7.05
2018-01-23T03:04:02.063Z,6.95
2018-01-23T03:05:02.079Z,6.95
2018-01-23T03:06:02.094Z,6.98
2018-01-23T03:07:02.154Z,6.89
2018-01-23T03:08:02.299Z,6.97
2018-01-23T03:09:02.130Z,6.97
2018-01-23T03:10:02.141Z,6.95
2018-01-23T03:11:02.155Z,6.88
2018-01-23T03:12:02.170Z,6.88
2018-01-23T03:13:02.180Z,6.87
2018-01-23T03:14:02.194Z,6.88
2018-01-23T03:15:02.208Z,6.85
2018-01-23T03:16:02.232Z,6.91
2018-01-23T03:17:02.237Z,6.84
2018-01-23T03:18:02.246Z,6.85
2018-01-23T03:19:02.258Z,6.81
2018-01-23T03:20:02.273Z,6.95
2018-01-23T03:21:02.286Z,6.92
2018-01-23T03:22:02.304Z,6.91
2018-01-23T03:23:02.315Z,6.88
2018-01-23T03:24:02.328Z,6.89
2018-01-23T03:25:02.388Z,6.89
2018-01-23T03:26:02.399Z,6.98
2018-01-23T03:27:02.372Z,6.94
2018-01-23T03:28:02.388Z,6.95
2018-01-23T03:29:02.391Z,6.99
2018-01-23T03:30:02.404Z,7.03
2018-01-23T03:31:02.417Z,7.03
2018-01-23T03:32:02.428Z,6.99
2018-01-23T03:33:02.441Z,7.06
2018-01-23T03:34:02.454Z,6.95
2018-01-23T03:35:02.468Z,7.02
2018-01-23T03:36:02.482Z,7.05
2018-01-23T03:37:02.498Z,6.95
2018-01-23T03:38:02.510Z,6.92
2018-01-23T03:39:02.519Z,6.88
2018-01-23T03:40:02.548Z,6.94
2018-01-23T03:41:02.546Z,6.97
2018-01-23T03:42:02.561Z,6.97
2018-01-23T03:43:02.788Z,6.94
2018-01-23T03:44:02.585Z,6.99
2018-01-23T03:45:02.602Z,6.98
2018-01-23T03:46:02.613Z,7.03
2018-01-23T03:47:02.624Z,6.94
2018-01-23T03:48:02.637Z,7.05
2018-01-23T03:49:02.651Z,6.92
2018-01-23T03:50:02.663Z,6.92
2018-01-23T03:51:02.676Z,6.92
2018-01-23T03:52:02.689Z,7.02
2018-01-23T03:53:02.702Z,6.99
2018-01-23T03:54:02.866Z,6.97
2018-01-23T03:55:02.729Z,6.99
2018-01-23T03:56:02.744Z,6.91
2018-01-23T03:57:02.752Z,6.92
2018-01-23T03:58:02.769Z,7.03
2018-01-23T03:59:02.791Z,6.89
2018-01-23T04:00:02.793Z,6.95
2018-01-23T04:01:02.805Z,6.99
2018-01-23T04:02:02.822Z,6.94
2018-01-23T04:03:02.833Z,6.92
2018-01-23T04:04:02.874Z,6.97
2018-01-23T04:05:02.858Z,6.85
2018-01-23T04:06:02.873Z,6.89
2018-01-23T04:07:02.883Z,6.94
2018-01-23T04:08:02.902Z,7.05
2018-01-23T04:09:03.062Z,6.94
2018-01-23T04:10:02.926Z,7.06
2018-01-23T04:11:03.090Z,6.95
2018-01-23T04:12:02.956Z,7.06
2018-01-23T04:13:02.963Z,6.92
2018-01-23T04:14:02.987Z,6.94
2018-01-23T04:15:02.992Z,6.88
2018-01-23T04:16:03.005Z,6.97
2018-01-23T04:17:03.164Z,6.91
2018-01-23T04:18:03.028Z,6.98
2018-01-23T04:19:03.042Z,6.91
2018-01-23T04:20:03.056Z,6.87
2018-01-23T04:21:03.067Z,6.97
2018-01-23T04:22:03.080Z,6.89
2018-01-23T04:23:03.197Z,6.85
2018-01-23T04:24:03.106Z,6.94
2018-01-23T04:25:03.121Z,6.92
2018-01-23T04:26:03.132Z,6.91
2018-01-23T04:27:03.298Z,6.94
2018-01-23T04:28:03.160Z,6.88
2018-01-23T04:29:03.172Z,6.88
2018-01-23T04:30:03.186Z,6.84
2018-01-23T04:31:03.198Z,6.88
2018-01-23T04:32:03.210Z,6.95
2018-01-23T04:33:03.288Z,6.92
2018-01-23T04:34:03.237Z,6.94
2018-01-23T04:35:03.250Z,6.95
2018-01-23T04:36:03.266Z,6.89
2018-01-23T04:37:03.276Z,6.92
2018-01-23T04:38:03.288Z,6.95
2018-01-23T04:39:03.303Z,6.94
2018-01-23T04:40:03.315Z,6.91
2018-01-23T04:41:03.328Z,6.97
2018-01-23T04:42:03.342Z,6.99
2018-01-23T04:43:03.354Z,6.94
2018-01-23T04:44:03.518Z,6.98
2018-01-23T04:45:03.382Z,6.94
2018-01-23T04:46:03.430Z,7.02
2018-01-23T04:47:03.406Z,6.95
2018-01-23T04:48:03.569Z,6.95
2018-01-23T04:49:03.433Z,6.92
2018-01-23T04:50:03.449Z,6.97
2018-01-23T04:51:03.610Z,6.80
2018-01-23T04:52:03.470Z,6.89
2018-01-23T04:53:03.484Z,6.88
2018-01-23T04:54:03.497Z,6.85
2018-01-23T04:55:03.510Z,6.79
2018-01-23T04:56:03.524Z,6.88
2018-01-23T04:57:03.536Z,6.91
2018-01-23T04:58:03.551Z,6.88
2018-01-23T04:59:03.563Z,6.81
2018-01-23T05:00:03.574Z,6.79
2018-01-23T05:01:03.586Z,6.80
2018-01-23T05:02:03.600Z,6.79
2018-01-23T05:03:03.612Z,6.84
2018-01-23T05:04:03.633Z,6.87
2018-01-23T05:05:03.639Z,6.85
2018-01-23T05:06:03.898Z,6.79
2018-01-23T05:07:03.770Z,6.81
2018-01-23T05:08:03.678Z,6.85
2018-01-23T05:09:03.690Z,6.87
2018-01-23T05:10:03.702Z,6.84
2018-01-23T05:11:03.716Z,6.85
2018-01-23T05:12:03.728Z,6.87
2018-01-23T05:13:03.742Z,6.85
2018-01-23T05:14:03.753Z,6.84
2018-01-23T05:15:03.764Z,6.74
2018-01-23T05:16:03.780Z,6.74
2018-01-23T05:17:03.816Z,6.84
2018-01-23T05:18:03.961Z,6.76
2018-01-23T05:19:03.818Z,6.84
2018-01-23T05:20:03.830Z,6.76
2018-01-23T05:21:03.846Z,6.79
2018-01-23T05:22:03.854Z,6.85
2018-01-23T05:23:03.877Z,6.76
2018-01-23T05:24:03.882Z,6.76
2018-01-23T05:25:03.894Z,6.76
2018-01-23T05:26:03.907Z,6.76
2018-01-23T05:27:03.925Z,6.73
2018-01-23T05:28:03.938Z,6.74
2018-01-23T05:29:03.946Z,6.77
2018-01-23T05:30:03.958Z,6.69
2018-01-23T05:31:03.972Z,6.69
2018-01-23T05:32:04.002Z,6.67
2018-01-23T05:33:04.149Z,6.66
2018-01-23T05:34:04.013Z,6.55
2018-01-23T05:35:04.026Z,6.58
2018-01-23T05:36:04.192Z,6.54
2018-01-23T05:37:04.052Z,6.58
2018-01-23T05:38:04.066Z,6.49
2018-01-23T05:39:04.389Z,6.52
2018-01-23T05:40:04.397Z,6.49
2018-01-23T05:41:04.101Z,6.51
2018-01-23T05:42:04.267Z,6.44
2018-01-23T05:43:04.128Z,6.48
2018-01-23T05:44:04.297Z,6.44
2018-01-23T05:45:04.153Z,6.43
2018-01-23T05:46:04.178Z,6.44
2018-01-23T05:47:04.329Z,6.48
2018-01-23T05:48:04.221Z,6.54
2018-01-23T05:49:04.207Z,6.49
2018-01-23T05:50:04.220Z,6.43
2018-01-23T05:51:04.227Z,6.54
2018-01-23T05:52:04.241Z,6.46
2018-01-23T05:53:04.253Z,6.41
2018-01-23T05:54:04.319Z,6.43
2018-01-23T05:55:04.285Z,6.41
2018-01-23T05:56:04.444Z,6.49
2018-01-23T05:57:04.306Z,6.41
2018-01-23T05:58:04.320Z,6.44
2018-01-23T05:59:04.338Z,6.49
2018-01-23T06:00:04.348Z,6.48
2018-01-23T06:01:04.357Z,6.52
2018-01-23T06:02:04.373Z,6.46
2018-01-23T06:03:04.383Z,6.44
2018-01-23T06:04:04.550Z,6.40
2018-01-23T06:05:04.411Z,6.37
2018-01-23T06:06:04.425Z,6.51
2018-01-23T06:07:04.436Z,6.48
2018-01-23T06:08:04.550Z,6.44
2018-01-23T06:09:04.474Z,6.51
2018-01-23T06:10:04.481Z,6.38
2018-01-23T06:11:04.487Z,6.44
2018-01-23T06:12:04.521Z,6.52
2018-01-23T06:13:04.512Z,6.41
2018-01-23T06:14:04.527Z,6.43
2018-01-23T06:15:04.539Z,6.41
2018-01-23T06:16:04.553Z,6.44
2018-01-23T06:17:04.564Z,6.37
2018-01-23T06:18:04.587Z,6.44
2018-01-23T06:19:04.590Z,6.37
2018-01-23T06:20:04.624Z,6.30
2018-01-23T06:21:04.616Z,6.38
2018-01-23T06:22:04.630Z,6.43
2018-01-23T06:23:04.639Z,6.38
2018-01-23T06:24:04.697Z,6.44
2018-01-23T06:25:04.716Z,6.48
2018-01-23T06:26:04.682Z,6.38
2018-01-23T06:27:04.845Z,6.46
2018-01-23T06:28:04.706Z,6.36
2018-01-23T06:29:04.723Z,6.46
2018-01-23T06:30:04.734Z,6.49
2018-01-23T06:31:04.745Z,6.49
2018-01-23T06:32:04.757Z,6.38
2018-01-23T06:33:04.770Z,6.40
2018-01-23T06:34:04.787Z,6.44
2018-01-23T06:35:04.796Z,6.49
2018-01-23T06:36:04.808Z,6.48
2018-01-23T06:37:04.845Z,6.48
2018-01-23T06:38:04.837Z,6.43
2018-01-23T06:39:04.848Z,6.52
2018-01-23T06:40:04.861Z,6.49
2018-01-23T06:41:04.872Z,6.49
2018-01-23T06:42:04.888Z,6.43
2018-01-23T06:43:04.900Z,6.51
2018-01-23T06:44:04.943Z,6.37
2018-01-23T06:45:04.927Z,6.51
2018-01-23T06:46:04.947Z,6.43
2018-01-23T06:47:04.953Z,6.58
2018-01-23T06:48:05.213Z,6.44
2018-01-23T06:49:04.977Z,6.48
2018-01-23T06:50:05.195Z,6.48
2018-01-23T06:51:05.009Z,6.51
2018-01-23T06:52:05.022Z,6.48
2018-01-23T06:53:05.034Z,6.52
2018-01-23T06:54:05.042Z,6.49
2018-01-23T06:55:05.071Z,6.51
2018-01-23T06:56:05.080Z,6.49
2018-01-23T06:57:05.513Z,6.54
2018-01-23T06:58:05.098Z,6.56
2018-01-23T06:59:05.108Z,6.61
2018-01-23T07:00:05.166Z,6.64
2018-01-23T07:01:05.138Z,6.49
2018-01-23T07:02:05.148Z,6.58
2018-01-23T07:03:05.159Z,6.56
2018-01-23T07:04:05.168Z,6.52
2018-01-23T07:05:05.190Z,6.67
2018-01-23T07:06:05.193Z,6.54
2018-01-23T07:07:05.356Z,6.58
2018-01-23T07:08:05.221Z,6.49
2018-01-23T07:09:05.233Z,6.55
2018-01-23T07:10:05.245Z,6.56
2018-01-23T07:11:05.257Z,6.54
2018-01-23T07:12:05.279Z,6.56
2018-01-23T07:13:05.284Z,6.58
2018-01-23T07:14:05.350Z,6.54
2018-01-23T07:15:05.310Z,6.58
2018-01-23T07:16:05.323Z,6.66
2018-01-23T07:17:05.335Z,6.56
2018-01-23T07:18:05.382Z,6.70
2018-01-23T07:19:05.364Z,6.66
2018-01-23T07:20:05.526Z,6.62
2018-01-23T07:21:05.441Z,6.64
2018-01-23T07:22:05.403Z,6.64
2018-01-23T07:23:05.416Z,6.61
2018-01-23T07:24:05.429Z,6.61
2018-01-23T07:26:05.455Z,6.64
2018-01-23T07:27:05.468Z,6.62
2018-01-23T07:28:05.481Z,6.61
2018-01-23T07:29:05.493Z,6.69
2018-01-23T07:30:05.910Z,6.66
2018-01-23T07:31:05.526Z,6.66
2018-01-23T07:32:05.539Z,6.69
2018-01-23T07:33:05.546Z,6.64
2018-01-23T07:34:05.559Z,6.62
2018-01-23T07:35:05.575Z,6.59
2018-01-23T07:36:06.336Z,6.62
2018-01-23T07:37:05.598Z,6.64
2018-01-23T07:38:05.614Z,6.66
2018-01-23T07:39:05.623Z,6.67
2018-01-23T07:40:05.638Z,6.69
2018-01-23T07:41:05.649Z,6.69
2018-01-23T07:42:05.665Z,6.71
2018-01-23T07:43:05.678Z,6.69
2018-01-23T07:44:06.646Z,6.69
2018-01-23T07:45:05.702Z,6.74
2018-01-23T07:46:05.716Z,6.70
2018-01-23T07:47:05.730Z,6.74
2018-01-23T07:48:05.744Z,6.70
2018-01-23T07:49:05.758Z,6.70
2018-01-23T07:50:05.770Z,6.70
2018-01-23T07:51:05.788Z,6.76
2018-01-23T07:52:05.795Z,6.77
2018-01-23T07:53:05.807Z,6.77
2018-01-23T07:54:05.825Z,6.74
2018-01-23T07:55:05.859Z,6.77
2018-01-23T07:56:05.883Z,6.79
2018-01-23T07:57:05.860Z,6.74
2018-01-23T07:58:05.875Z,6.84
2018-01-23T07:59:05.891Z,6.80
2018-01-23T08:00:05.899Z,6.74
2018-01-23T08:01:05.917Z,6.79
2018-01-23T08:02:05.929Z,6.79
2018-01-23T08:03:05.940Z,6.81
2018-01-23T08:04:06.104Z,6.80
2018-01-23T08:05:05.965Z,6.84
2018-01-23T08:06:06.228Z,6.84
2018-01-23T08:07:05.996Z,6.84
2018-01-23T08:08:06.007Z,6.84
2018-01-23T08:09:06.020Z,6.85
2018-01-23T08:10:06.036Z,6.91
2018-01-23T08:11:06.045Z,6.81
2018-01-23T08:12:06.059Z,6.91
2018-01-23T08:13:06.072Z,6.89
2018-01-23T08:14:06.085Z,6.95
2018-01-23T08:15:06.850Z,6.89
2018-01-23T08:16:07.640Z,6.99
2018-01-23T08:17:06.127Z,6.85
2018-01-23T08:18:06.149Z,6.89
2018-01-23T08:19:06.156Z,6.84
2018-01-23T08:20:06.167Z,6.88
2018-01-23T08:21:06.179Z,6.87
2018-01-23T08:22:06.193Z,6.84
2018-01-23T08:23:06.227Z,6.85
2018-01-23T08:24:06.222Z,6.85
2018-01-23T08:25:06.232Z,6.92
2018-01-23T08:26:06.257Z,6.91
2018-01-23T08:27:06.263Z,6.92
2018-01-23T08:28:06.272Z,6.89
2018-01-23T08:29:06.291Z,6.98
2018-01-23T08:30:06.471Z,6.94
2018-01-23T08:31:06.324Z,6.91
2018-01-23T08:32:06.329Z,6.92
2018-01-23T08:33:06.353Z,6.95
2018-01-23T08:34:06.356Z,6.94
2018-01-23T08:35:06.375Z,6.94
2018-01-23T08:36:06.379Z,6.97
2018-01-23T08:37:06.401Z,6.94
2018-01-23T08:38:07.159Z,6.94
2018-01-23T08:39:06.425Z,6.94
2018-01-23T08:40:06.432Z,6.99
2018-01-23T08:41:06.452Z,6.99
2018-01-23T08:42:06.462Z,7.02
2018-01-23T08:43:06.472Z,7.07
2018-01-23T08:44:06.493Z,6.98
2018-01-23T08:45:06.516Z,6.98
2018-01-23T08:46:06.513Z,6.99
2018-01-23T08:47:06.526Z,6.92
2018-01-23T08:48:06.538Z,6.94
2018-01-23T08:49:06.713Z,6.99
2018-01-23T08:50:06.567Z,6.99
2018-01-23T08:51:06.581Z,7.07
2018-01-23T08:52:06.615Z,6.99
2018-01-23T08:53:06.606Z,7.06
2018-01-23T08:54:06.624Z,7.03
2018-01-23T08:55:06.632Z,7.03
2018-01-23T08:56:06.648Z,7.03
2018-01-23T08:57:06.662Z,7.05
2018-01-23T08:58:06.674Z,7.07
2018-01-23T08:59:06.701Z,7.10
2018-01-23T09:00:06.809Z,7.17
2018-01-23T09:01:06.716Z,7.05
2018-01-23T09:02:06.748Z,7.10
2018-01-23T09:03:06.749Z,7.13
2018-01-23T09:04:06.760Z,7.09
2018-01-23T09:05:06.772Z,7.12
2018-01-23T09:06:06.781Z,7.21
2018-01-23T09:07:06.796Z,7.25
2018-01-23T09:08:06.958Z,7.17
2018-01-23T09:09:06.975Z,7.21
2018-01-23T09:10:06.839Z,7.24
2018-01-23T09:11:06.849Z,7.23
2018-01-23T09:12:06.862Z,7.27
2018-01-23T09:13:06.875Z,7.23
2018-01-23T09:14:06.902Z,7.23
2018-01-23T09:15:06.903Z,7.20
2018-01-23T09:16:06.968Z,7.24
2018-01-23T09:17:06.933Z,7.27
2018-01-23T09:18:06.966Z,7.30
2018-01-23T09:19:06.959Z,7.31
2018-01-23T09:20:06.972Z,7.31
2018-01-23T09:21:06.986Z,7.28
2018-01-23T09:22:07.000Z,7.32
2018-01-23T09:23:07.010Z,7.28
2018-01-23T09:24:07.023Z,7.31
2018-01-23T09:25:07.035Z,7.31
2018-01-23T09:26:07.052Z,7.34
2018-01-23T09:27:07.065Z,7.31
2018-01-23T09:28:07.095Z,7.30
2018-01-23T09:29:07.202Z,7.34
2018-01-23T09:30:07.106Z,7.35
2018-01-23T09:31:07.122Z,7.32
2018-01-23T09:32:07.137Z,7.30
2018-01-23T09:33:07.149Z,7.35
2018-01-23T09:34:07.173Z,7.30
2018-01-23T09:35:07.330Z,7.43
2018-01-23T09:36:07.193Z,7.39
2018-01-23T09:37:07.203Z,7.34
2018-01-23T09:38:07.217Z,7.53
2018-01-23T09:39:07.227Z,7.48
2018-01-23T09:40:07.254Z,7.50
2018-01-23T09:41:07.256Z,7.55
2018-01-23T09:42:07.418Z,7.40
2018-01-23T09:43:07.284Z,7.53
2018-01-23T09:44:07.296Z,7.48
2018-01-23T09:45:07.389Z,7.43
2018-01-23T09:46:07.323Z,7.57
2018-01-23T09:47:07.337Z,7.58
2018-01-23T09:48:07.352Z,7.52
2018-01-23T09:49:07.365Z,7.60
2018-01-23T09:50:07.384Z,7.55
2018-01-23T09:51:07.445Z,7.58
2018-01-23T09:52:07.400Z,7.61
2018-01-23T09:53:07.412Z,7.64
2018-01-23T09:54:07.429Z,7.61
2018-01-23T09:55:07.442Z,7.72
2018-01-23T09:56:07.570Z,7.69
2018-01-23T09:57:07.467Z,7.72
2018-01-23T09:58:07.486Z,7.79
2018-01-23T09:59:07.662Z,7.72
2018-01-23T10:00:07.512Z,7.74
2018-01-23T10:01:07.526Z,7.61
2018-01-23T10:02:08.440Z,7.63
2018-01-23T10:03:07.553Z,7.60
2018-01-23T10:04:07.574Z,7.74
2018-01-23T10:05:07.589Z,7.75
2018-01-23T10:06:07.593Z,7.75
2018-01-23T10:07:07.609Z,7.72
2018-01-23T10:08:07.619Z,7.71
2018-01-23T10:09:07.783Z,7.75
2018-01-23T10:10:07.647Z,7.68
2018-01-23T10:11:07.668Z,7.75
2018-01-23T10:12:07.676Z,7.77
2018-01-23T10:13:07.744Z,7.72
2018-01-23T10:14:07.703Z,7.82
2018-01-23T10:15:07.718Z,7.82
2018-01-23T10:16:07.880Z,7.74
2018-01-23T10:17:07.743Z,7.77
2018-01-23T10:18:07.757Z,7.83
2018-01-23T10:19:07.771Z,7.86
2018-01-23T10:20:07.786Z,7.83
2018-01-23T10:21:07.799Z,7.90
2018-01-23T10:22:07.814Z,7.87
2018-01-23T10:23:07.979Z,7.90
2018-01-23T10:24:07.842Z,7.86
2018-01-23T10:25:07.853Z,7.90
2018-01-23T10:26:07.870Z,7.95
2018-01-23T10:27:07.885Z,7.93
2018-01-23T10:28:07.906Z,7.95
2018-01-23T10:29:08.027Z,8.01
2018-01-23T10:30:07.925Z,7.98
2018-01-23T10:31:07.939Z,7.90
2018-01-23T10:32:07.950Z,8.02
2018-01-23T10:33:07.967Z,8.00
2018-01-23T10:34:07.982Z,8.08
2018-01-23T10:35:08.009Z,8.10
2018-01-23T10:36:08.014Z,8.02
2018-01-23T10:37:08.020Z,8.02
2018-01-23T10:38:08.036Z,8.04
2018-01-23T10:39:08.059Z,8.05
2018-01-23T10:40:08.062Z,8.08
2018-01-23T10:41:08.077Z,8.07
2018-01-23T10:42:08.241Z,7.98
2018-01-23T10:43:08.104Z,8.01
2018-01-23T10:44:08.118Z,8.02
2018-01-23T10:45:08.131Z,8.07
2018-01-23T10:46:08.153Z,8.16
2018-01-23T10:47:08.161Z,8.15
2018-01-23T10:48:08.174Z,8.11
2018-01-23T10:49:08.188Z,8.11
2018-01-23T10:50:08.203Z,8.15
2018-01-23T10:51:08.216Z,8.23
2018-01-23T10:52:08.230Z,8.22
2018-01-23T10:53:08.244Z,8.12
2018-01-23T10:54:08.256Z,8.18
2018-01-23T10:55:08.277Z,8.18
2018-01-23T10:56:08.289Z,8.20
2018-01-23T10:57:08.448Z,8.22
2018-01-23T10:58:08.313Z,8.23
2018-01-23T10:59:08.327Z,8.20
2018-01-23T11:00:08.343Z,8.23
2018-01-23T11:01:08.354Z,8.34
2018-01-23T11:02:08.369Z,8.29
2018-01-23T11:03:08.383Z,8.36
2018-01-23T11:04:08.401Z,8.38
2018-01-23T11:05:08.560Z,8.29
2018-01-23T11:06:08.424Z,8.37
2018-01-23T11:07:08.443Z,8.38
2018-01-23T11:08:08.466Z,8.29
2018-01-23T11:09:08.465Z,8.38
2018-01-23T11:10:08.485Z,8.36
2018-01-23T11:11:08.645Z,8.34
2018-01-23T11:12:08.512Z,8.37
2018-01-23T11:13:08.545Z,8.40
2018-01-23T11:14:08.653Z,8.44
2018-01-23T11:15:08.556Z,8.38
2018-01-23T11:16:08.630Z,8.44
2018-01-23T11:17:08.579Z,8.43
2018-01-23T11:18:08.743Z,8.43
2018-01-23T11:19:09.165Z,8.41
2018-01-23T11:20:08.622Z,8.40
2018-01-23T11:21:08.785Z,8.55
2018-01-23T11:22:08.650Z,8.44
2018-01-23T11:23:08.708Z,8.53
2018-01-23T11:24:08.680Z,8.50
2018-01-23T11:25:08.693Z,8.59
2018-01-23T11:26:08.706Z,8.61
2018-01-23T11:27:08.871Z,8.50
2018-01-23T11:28:08.734Z,8.53
2018-01-23T11:29:08.957Z,8.48
2018-01-23T11:30:08.762Z,8.48
2018-01-23T11:31:08.778Z,8.53
2018-01-23T11:32:08.793Z,8.55
2018-01-23T11:33:08.817Z,8.55
2018-01-23T11:34:08.818Z,8.61
2018-01-23T11:35:08.835Z,8.55
2018-01-23T11:36:08.848Z,8.52
2018-01-23T11:37:08.863Z,8.52
2018-01-23T11:38:08.877Z,8.53
2018-01-23T11:39:08.894Z,8.53
2018-01-23T11:40:08.911Z,8.53
2018-01-23T11:41:08.924Z,8.48
2018-01-23T11:42:09.095Z,8.55
2018-01-23T11:43:08.947Z,8.53
2018-01-23T11:44:08.962Z,8.55
2018-01-23T11:45:08.973Z,8.53
2018-01-23T11:46:08.988Z,8.62
2018-01-23T11:47:09.007Z,8.61
2018-01-23T11:48:09.019Z,8.55
2018-01-23T11:49:09.038Z,8.71
2018-01-23T11:50:09.047Z,8.73
2018-01-23T11:51:09.232Z,8.79
2018-01-23T11:52:09.076Z,8.83
2018-01-23T11:53:09.145Z,8.92
2018-01-23T11:54:09.105Z,9.04
2018-01-23T11:55:09.117Z,8.99
2018-01-23T11:56:09.137Z,9.05
2018-01-23T11:57:09.297Z,9.04
2018-01-23T11:58:09.160Z,9.10
2018-01-23T11:59:09.179Z,9.11
2018-01-23T12:00:09.189Z,9.13
2018-01-23T12:01:09.205Z,9.08
2018-01-23T12:02:09.217Z,9.05
2018-01-23T12:03:09.232Z,9.10
2018-01-23T12:04:09.252Z,9.08
2018-01-23T12:05:09.265Z,9.10
2018-01-23T12:06:09.287Z,9.05
2018-01-23T12:07:09.310Z,9.08
2018-01-23T12:08:09.394Z,9.10
2018-01-23T12:09:09.330Z,9.08
2018-01-23T12:10:09.362Z,9.05
2018-01-23T12:11:09.355Z,8.98
2018-01-23T12:12:09.365Z,9.01
2018-01-23T12:13:09.724Z,8.95
2018-01-23T12:14:09.415Z,9.04
2018-01-23T12:15:09.409Z,9.02
2018-01-23T12:16:09.421Z,9.05
2018-01-23T12:17:10.131Z,8.98
2018-01-23T12:18:09.450Z,9.01
2018-01-23T12:19:09.467Z,8.99
2018-01-23T12:20:09.632Z,9.04
2018-01-23T12:21:09.492Z,9.15
2018-01-23T12:22:09.517Z,9.17
2018-01-23T12:23:09.521Z,9.23
2018-01-23T12:24:09.537Z,9.26
2018-01-23T12:25:10.269Z,9.32
2018-01-23T12:26:09.565Z,9.43
2018-01-23T12:27:09.579Z,9.43
2018-01-23T12:28:09.593Z,9.38
2018-01-23T12:29:09.609Z,9.43
2018-01-23T12:30:09.625Z,9.50
2018-01-23T12:31:09.648Z,9.47
2018-01-23T12:32:09.672Z,9.53
2018-01-23T12:33:09.684Z,9.47
2018-01-23T12:34:09.679Z,9.42
2018-01-23T12:35:09.700Z,9.46
2018-01-23T12:36:09.761Z,9.40
2018-01-23T12:37:09.728Z,9.39
2018-01-23T12:38:09.740Z,9.43
2018-01-23T12:39:09.757Z,9.36
2018-01-23T12:40:09.771Z,9.39
2018-01-23T12:41:09.790Z,9.39
2018-01-23T12:42:09.805Z,9.40
2018-01-23T12:43:09.811Z,9.40
2018-01-23T12:44:09.827Z,9.36
2018-01-23T12:45:09.846Z,9.31
2018-01-23T12:46:10.021Z,9.26
2018-01-23T12:47:09.879Z,9.31
2018-01-23T12:48:09.888Z,9.31
2018-01-23T12:49:09.908Z,9.31
2018-01-23T12:50:09.918Z,9.31
2018-01-23T12:51:09.931Z,9.24
2018-01-23T12:52:09.945Z,9.33
2018-01-23T12:53:09.957Z,9.42
2018-01-23T12:54:09.979Z,9.42
2018-01-23T12:55:10.200Z,9.47
2018-01-23T12:56:10.006Z,9.50
2018-01-23T12:57:10.018Z,9.46
2018-01-23T12:58:10.033Z,9.54
2018-01-23T12:59:10.049Z,9.46
2018-01-23T13:00:10.064Z,9.46
2018-01-23T13:01:10.082Z,9.39
2018-01-23T13:02:10.249Z,9.50
2018-01-23T13:03:10.105Z,9.40
2018-01-23T13:04:10.122Z,9.43
2018-01-23T13:05:10.286Z,9.42
2018-01-23T13:06:10.197Z,9.36
2018-01-23T13:07:10.163Z,9.42
2018-01-23T13:08:10.184Z,9.48
2018-01-23T13:09:10.346Z,9.43
2018-01-23T13:10:10.210Z,9.39
2018-01-23T13:11:10.240Z,9.53
2018-01-23T13:12:10.237Z,9.42
2018-01-23T13:13:10.253Z,9.46
2018-01-23T13:14:10.266Z,9.35
2018-01-23T13:15:10.281Z,9.29
2018-01-23T13:16:10.310Z,9.42
2018-01-23T13:17:10.342Z,9.38
2018-01-23T13:18:10.332Z,9.36
2018-01-23T13:19:10.348Z,9.40
2018-01-23T13:20:10.358Z,9.42
2018-01-23T13:21:10.370Z,9.39